sensor_id;sensor_type;location;lat;lon;timestamp;P1;durP1;ratioP1;P2;durP2;ratioP2
52866;SDS011;38739;53.324;6.862;2023-11-19T00:00:42;78.65;;;25.42;;
52866;SDS011;38739;53.324;6.862;2023-11-19T00:03:08;99.55;;;27.48;;
52866;SDS011;38739;53.324;6.862;2023-11-19T00:05:35;89.70;;;26.83;;
52866;SDS011;38739;53.324;6.862;2023-11-19T00:08:01;96.63;;;27.17;;
52866;SDS011;38739;53.324;6.862;2023-11-19T00:10:27;95.40;;;27.67;;
52866;SDS011;38739;53.324;6.862;2023-11-19T00:12:53;97.15;;;27.33;;
52866;SDS011;38739;53.324;6.862;2023-11-19T00:15:18;87.00;;;25.58;;
52866;SDS011;38739;53.324;6.862;2023-11-19T00:17:44;91.00;;;25.77;;
52866;SDS011;38739;53.324;6.862;2023-11-19T00:20:12;90.35;;;26.52;;
52866;SDS011;38739;53.324;6.862;2023-11-19T00:22:38;100.25;;;26.25;;
52866;SDS011;38739;53.324;6.862;2023-11-19T00:25:05;116.75;;;28.05;;
52866;SDS011;38739;53.324;6.862;2023-11-19T00:27:31;86.25;;;25.63;;
52866;SDS011;38739;53.324;6.862;2023-11-19T00:29:57;96.72;;;27.27;;
52866;SDS011;38739;53.324;6.862;2023-11-19T00:32:23;80.35;;;25.67;;
52866;SDS011;38739;53.324;6.862;2023-11-19T00:34:49;112.97;;;27.98;;
52866;SDS011;38739;53.324;6.862;2023-11-19T00:37:15;97.57;;;27.00;;
52866;SDS011;38739;53.324;6.862;2023-11-19T00:39:41;129.65;;;30.33;;
52866;SDS011;38739;53.324;6.862;2023-11-19T00:42:08;84.93;;;26.98;;
52866;SDS011;38739;53.324;6.862;2023-11-19T00:44:35;92.35;;;28.08;;
52866;SDS011;38739;53.324;6.862;2023-11-19T00:47:01;103.72;;;28.15;;
52866;SDS011;38739;53.324;6.862;2023-11-19T00:49:27;92.50;;;26.77;;
52866;SDS011;38739;53.324;6.862;2023-11-19T00:51:53;78.03;;;26.33;;
52866;SDS011;38739;53.324;6.862;2023-11-19T00:54:19;100.50;;;28.15;;
52866;SDS011;38739;53.324;6.862;2023-11-19T00:56:45;99.03;;;28.10;;
52866;SDS011;38739;53.324;6.862;2023-11-19T00:59:10;97.93;;;27.60;;
52866;SDS011;38739;53.324;6.862;2023-11-19T01:01:36;116.18;;;29.20;;
52866;SDS011;38739;53.324;6.862;2023-11-19T01:04:02;83.10;;;26.42;;
52866;SDS011;38739;53.324;6.862;2023-11-19T01:06:28;91.80;;;27.02;;
52866;SDS011;38739;53.324;6.862;2023-11-19T01:08:55;89.28;;;27.20;;
52866;SDS011;38739;53.324;6.862;2023-11-19T01:11:24;103.88;;;26.88;;
52866;SDS011;38739;53.324;6.862;2023-11-19T01:13:50;95.88;;;25.33;;
52866;SDS011;38739;53.324;6.862;2023-11-19T01:16:17;104.88;;;25.75;;
52866;SDS011;38739;53.324;6.862;2023-11-19T01:18:43;88.93;;;24.38;;
52866;SDS011;38739;53.324;6.862;2023-11-19T01:21:09;95.55;;;24.52;;
52866;SDS011;38739;53.324;6.862;2023-11-19T01:23:35;89.05;;;23.67;;
52866;SDS011;38739;53.324;6.862;2023-11-19T01:26:02;80.30;;;22.27;;
52866;SDS011;38739;53.324;6.862;2023-11-19T01:28:30;73.20;;;20.27;;
52866;SDS011;38739;53.324;6.862;2023-11-19T01:30:56;67.68;;;18.10;;
52866;SDS011;38739;53.324;6.862;2023-11-19T01:33:22;69.28;;;16.58;;
52866;SDS011;38739;53.324;6.862;2023-11-19T01:35:48;67.40;;;14.45;;
52866;SDS011;38739;53.324;6.862;2023-11-19T01:38:13;65.60;;;13.63;;
52866;SDS011;38739;53.324;6.862;2023-11-19T01:40:39;61.67;;;12.32;;
52866;SDS011;38739;53.324;6.862;2023-11-19T01:43:05;57.22;;;11.95;;
52866;SDS011;38739;53.324;6.862;2023-11-19T01:45:31;63.17;;;12.20;;
52866;SDS011;38739;53.324;6.862;2023-11-19T01:47:59;64.55;;;11.23;;
52866;SDS011;38739;53.324;6.862;2023-11-19T01:50:29;60.15;;;9.95;;
52866;SDS011;38739;53.324;6.862;2023-11-19T01:52:56;59.67;;;9.30;;
52866;SDS011;38739;53.324;6.862;2023-11-19T01:55:22;51.03;;;9.07;;
52866;SDS011;38739;53.324;6.862;2023-11-19T01:57:50;58.25;;;9.50;;
52866;SDS011;38739;53.324;6.862;2023-11-19T02:00:18;63.33;;;8.73;;
52866;SDS011;38739;53.324;6.862;2023-11-19T02:02:45;56.03;;;9.25;;
52866;SDS011;38739;53.324;6.862;2023-11-19T02:05:11;57.40;;;8.63;;
52866;SDS011;38739;53.324;6.862;2023-11-19T02:07:38;55.33;;;8.60;;
52866;SDS011;38739;53.324;6.862;2023-11-19T02:10:04;54.45;;;8.73;;
52866;SDS011;38739;53.324;6.862;2023-11-19T02:12:31;50.47;;;8.55;;
52866;SDS011;38739;53.324;6.862;2023-11-19T02:15:01;51.15;;;8.60;;
52866;SDS011;38739;53.324;6.862;2023-11-19T02:17:31;55.92;;;8.80;;
52866;SDS011;38739;53.324;6.862;2023-11-19T02:19:57;52.00;;;8.50;;
52866;SDS011;38739;53.324;6.862;2023-11-19T02:22:23;58.97;;;8.35;;
52866;SDS011;38739;53.324;6.862;2023-11-19T02:24:51;51.58;;;7.63;;
52866;SDS011;38739;53.324;6.862;2023-11-19T02:30:24;47.38;;;7.65;;
52866;SDS011;38739;53.324;6.862;2023-11-19T02:32:56;55.85;;;8.43;;
52866;SDS011;38739;53.324;6.862;2023-11-19T02:35:30;57.50;;;7.45;;
52866;SDS011;38739;53.324;6.862;2023-11-19T02:37:57;47.90;;;7.45;;
52866;SDS011;38739;53.324;6.862;2023-11-19T02:40:24;58.20;;;7.60;;
52866;SDS011;38739;53.324;6.862;2023-11-19T02:42:50;44.83;;;7.72;;
52866;SDS011;38739;53.324;6.862;2023-11-19T02:45:16;54.97;;;7.55;;
52866;SDS011;38739;53.324;6.862;2023-11-19T02:47:42;48.60;;;7.68;;
52866;SDS011;38739;53.324;6.862;2023-11-19T02:50:12;53.95;;;7.72;;
52866;SDS011;38739;53.324;6.862;2023-11-19T02:52:44;45.07;;;7.73;;
52866;SDS011;38739;53.324;6.862;2023-11-19T02:55:10;52.53;;;7.28;;
52866;SDS011;38739;53.324;6.862;2023-11-19T02:57:40;58.78;;;8.48;;
52866;SDS011;38739;53.324;6.862;2023-11-19T03:00:15;58.53;;;7.95;;
52866;SDS011;38739;53.324;6.862;2023-11-19T03:02:43;51.90;;;7.82;;
52866;SDS011;38739;53.324;6.862;2023-11-19T03:05:13;55.13;;;7.60;;
52866;SDS011;38739;53.324;6.862;2023-11-19T03:07:43;57.70;;;7.53;;
52866;SDS011;38739;53.324;6.862;2023-11-19T03:10:12;48.38;;;7.88;;
52866;SDS011;38739;53.324;6.862;2023-11-19T03:12:41;60.30;;;8.18;;
52866;SDS011;38739;53.324;6.862;2023-11-19T03:15:08;48.83;;;7.32;;
52866;SDS011;38739;53.324;6.862;2023-11-19T03:17:35;59.53;;;7.57;;
52866;SDS011;38739;53.324;6.862;2023-11-19T03:20:04;53.28;;;7.50;;
52866;SDS011;38739;53.324;6.862;2023-11-19T03:22:32;51.53;;;7.10;;
52866;SDS011;38739;53.324;6.862;2023-11-19T03:25:00;56.72;;;7.82;;
52866;SDS011;38739;53.324;6.862;2023-11-19T03:27:26;53.72;;;7.82;;
52866;SDS011;38739;53.324;6.862;2023-11-19T03:29:52;56.00;;;7.40;;
52866;SDS011;38739;53.324;6.862;2023-11-19T03:32:17;46.60;;;7.60;;
52866;SDS011;38739;53.324;6.862;2023-11-19T03:34:43;46.03;;;7.30;;
52866;SDS011;38739;53.324;6.862;2023-11-19T03:37:09;45.33;;;6.57;;
52866;SDS011;38739;53.324;6.862;2023-11-19T03:39:35;50.83;;;7.72;;
52866;SDS011;38739;53.324;6.862;2023-11-19T03:42:00;57.92;;;8.07;;
52866;SDS011;38739;53.324;6.862;2023-11-19T03:44:27;52.10;;;6.70;;
52866;SDS011;38739;53.324;6.862;2023-11-19T03:46:52;46.78;;;7.07;;
52866;SDS011;38739;53.324;6.862;2023-11-19T03:49:18;51.05;;;6.90;;
52866;SDS011;38739;53.324;6.862;2023-11-19T03:51:43;47.13;;;7.30;;
52866;SDS011;38739;53.324;6.862;2023-11-19T03:54:09;54.50;;;7.78;;
52866;SDS011;38739;53.324;6.862;2023-11-19T03:56:36;58.15;;;8.07;;
52866;SDS011;38739;53.324;6.862;2023-11-19T03:59:02;53.65;;;7.10;;
52866;SDS011;38739;53.324;6.862;2023-11-19T04:01:28;52.00;;;7.20;;
52866;SDS011;38739;53.324;6.862;2023-11-19T04:03:54;55.90;;;7.53;;
52866;SDS011;38739;53.324;6.862;2023-11-19T04:06:21;55.00;;;8.10;;
52866;SDS011;38739;53.324;6.862;2023-11-19T04:08:46;56.58;;;7.28;;
52866;SDS011;38739;53.324;6.862;2023-11-19T04:11:12;50.85;;;7.53;;
52866;SDS011;38739;53.324;6.862;2023-11-19T04:13:38;59.80;;;8.38;;
52866;SDS011;38739;53.324;6.862;2023-11-19T04:16:03;56.70;;;7.32;;
52866;SDS011;38739;53.324;6.862;2023-11-19T04:18:29;41.08;;;6.30;;
52866;SDS011;38739;53.324;6.862;2023-11-19T04:20:57;48.53;;;7.47;;
52866;SDS011;38739;53.324;6.862;2023-11-19T04:23:22;47.17;;;7.45;;
52866;SDS011;38739;53.324;6.862;2023-11-19T04:25:50;49.90;;;7.38;;
52866;SDS011;38739;53.324;6.862;2023-11-19T04:28:15;55.25;;;7.15;;
52866;SDS011;38739;53.324;6.862;2023-11-19T04:30:41;44.40;;;6.93;;
52866;SDS011;38739;53.324;6.862;2023-11-19T04:33:07;51.13;;;7.05;;
52866;SDS011;38739;53.324;6.862;2023-11-19T04:35:32;49.83;;;6.95;;
52866;SDS011;38739;53.324;6.862;2023-11-19T04:37:58;48.75;;;7.68;;
52866;SDS011;38739;53.324;6.862;2023-11-19T04:40:24;46.72;;;7.22;;
52866;SDS011;38739;53.324;6.862;2023-11-19T04:42:50;47.20;;;7.15;;
52866;SDS011;38739;53.324;6.862;2023-11-19T04:45:15;55.78;;;7.55;;
52866;SDS011;38739;53.324;6.862;2023-11-19T04:47:42;51.03;;;6.88;;
52866;SDS011;38739;53.324;6.862;2023-11-19T04:50:08;44.28;;;7.50;;
52866;SDS011;38739;53.324;6.862;2023-11-19T04:52:37;52.40;;;7.00;;
52866;SDS011;38739;53.324;6.862;2023-11-19T04:55:07;54.70;;;7.22;;
52866;SDS011;38739;53.324;6.862;2023-11-19T04:57:36;46.50;;;7.30;;
52866;SDS011;38739;53.324;6.862;2023-11-19T05:00:02;55.05;;;7.38;;
52866;SDS011;38739;53.324;6.862;2023-11-19T05:02:31;49.60;;;7.45;;
52866;SDS011;38739;53.324;6.862;2023-11-19T05:04:56;48.20;;;7.53;;
52866;SDS011;38739;53.324;6.862;2023-11-19T05:07:22;48.28;;;8.05;;
52866;SDS011;38739;53.324;6.862;2023-11-19T05:09:48;56.22;;;7.93;;
52866;SDS011;38739;53.324;6.862;2023-11-19T05:12:13;46.40;;;7.07;;
52866;SDS011;38739;53.324;6.862;2023-11-19T05:14:39;57.45;;;7.57;;
52866;SDS011;38739;53.324;6.862;2023-11-19T05:17:05;56.75;;;7.45;;
52866;SDS011;38739;53.324;6.862;2023-11-19T05:19:30;62.15;;;7.88;;
52866;SDS011;38739;53.324;6.862;2023-11-19T05:21:56;53.45;;;8.35;;
52866;SDS011;38739;53.324;6.862;2023-11-19T05:24:22;52.28;;;7.80;;
52866;SDS011;38739;53.324;6.862;2023-11-19T05:26:48;50.28;;;7.22;;
52866;SDS011;38739;53.324;6.862;2023-11-19T05:29:16;59.83;;;8.10;;
52866;SDS011;38739;53.324;6.862;2023-11-19T05:31:42;50.90;;;7.82;;
52866;SDS011;38739;53.324;6.862;2023-11-19T05:34:07;50.53;;;7.18;;
52866;SDS011;38739;53.324;6.862;2023-11-19T05:36:33;57.20;;;7.53;;
52866;SDS011;38739;53.324;6.862;2023-11-19T05:38:59;53.15;;;8.38;;
52866;SDS011;38739;53.324;6.862;2023-11-19T05:41:24;57.38;;;7.97;;
52866;SDS011;38739;53.324;6.862;2023-11-19T05:43:50;43.17;;;6.68;;
52866;SDS011;38739;53.324;6.862;2023-11-19T05:46:16;54.63;;;7.90;;
52866;SDS011;38739;53.324;6.862;2023-11-19T05:48:42;50.58;;;8.23;;
52866;SDS011;38739;53.324;6.862;2023-11-19T05:51:08;53.35;;;7.90;;
52866;SDS011;38739;53.324;6.862;2023-11-19T05:53:33;50.88;;;7.15;;
52866;SDS011;38739;53.324;6.862;2023-11-19T05:55:59;48.28;;;7.35;;
52866;SDS011;38739;53.324;6.862;2023-11-19T05:58:28;51.75;;;7.55;;
52866;SDS011;38739;53.324;6.862;2023-11-19T06:00:55;46.95;;;8.20;;
52866;SDS011;38739;53.324;6.862;2023-11-19T06:03:22;56.95;;;7.65;;
52866;SDS011;38739;53.324;6.862;2023-11-19T06:05:48;52.10;;;7.72;;
52866;SDS011;38739;53.324;6.862;2023-11-19T06:08:14;60.13;;;8.40;;
52866;SDS011;38739;53.324;6.862;2023-11-19T06:10:40;54.95;;;8.23;;
52866;SDS011;38739;53.324;6.862;2023-11-19T06:13:07;50.45;;;7.75;;
52866;SDS011;38739;53.324;6.862;2023-11-19T06:15:35;54.95;;;7.53;;
52866;SDS011;38739;53.324;6.862;2023-11-19T06:18:01;52.80;;;8.27;;
52866;SDS011;38739;53.324;6.862;2023-11-19T06:20:32;59.00;;;7.18;;
52866;SDS011;38739;53.324;6.862;2023-11-19T06:22:59;46.42;;;6.90;;
52866;SDS011;38739;53.324;6.862;2023-11-19T06:25:26;57.13;;;7.80;;
52866;SDS011;38739;53.324;6.862;2023-11-19T06:27:51;53.10;;;6.90;;
52866;SDS011;38739;53.324;6.862;2023-11-19T06:30:18;48.08;;;8.00;;
52866;SDS011;38739;53.324;6.862;2023-11-19T06:32:44;54.72;;;8.75;;
52866;SDS011;38739;53.324;6.862;2023-11-19T06:35:10;48.90;;;7.85;;
52866;SDS011;38739;53.324;6.862;2023-11-19T06:37:38;53.95;;;7.93;;
52866;SDS011;38739;53.324;6.862;2023-11-19T06:40:04;55.42;;;8.27;;
52866;SDS011;38739;53.324;6.862;2023-11-19T06:42:30;49.67;;;8.05;;
52866;SDS011;38739;53.324;6.862;2023-11-19T06:44:56;47.95;;;7.63;;
52866;SDS011;38739;53.324;6.862;2023-11-19T06:47:27;51.47;;;7.55;;
52866;SDS011;38739;53.324;6.862;2023-11-19T06:49:53;54.75;;;7.68;;
52866;SDS011;38739;53.324;6.862;2023-11-19T06:52:20;50.92;;;7.43;;
52866;SDS011;38739;53.324;6.862;2023-11-19T06:54:45;55.55;;;7.93;;
52866;SDS011;38739;53.324;6.862;2023-11-19T06:57:11;55.08;;;8.18;;
52866;SDS011;38739;53.324;6.862;2023-11-19T06:59:38;53.95;;;8.07;;
52866;SDS011;38739;53.324;6.862;2023-11-19T07:02:04;47.55;;;8.32;;
52866;SDS011;38739;53.324;6.862;2023-11-19T07:04:31;55.35;;;8.43;;
52866;SDS011;38739;53.324;6.862;2023-11-19T07:06:58;47.20;;;7.25;;
52866;SDS011;38739;53.324;6.862;2023-11-19T07:09:27;50.65;;;7.75;;
52866;SDS011;38739;53.324;6.862;2023-11-19T07:11:53;53.15;;;7.78;;
52866;SDS011;38739;53.324;6.862;2023-11-19T07:14:19;52.45;;;7.97;;
52866;SDS011;38739;53.324;6.862;2023-11-19T07:16:47;51.72;;;7.75;;
52866;SDS011;38739;53.324;6.862;2023-11-19T07:19:13;48.28;;;7.55;;
52866;SDS011;38739;53.324;6.862;2023-11-19T07:21:41;52.72;;;7.65;;
52866;SDS011;38739;53.324;6.862;2023-11-19T07:24:09;47.75;;;7.28;;
52866;SDS011;38739;53.324;6.862;2023-11-19T07:26:41;47.97;;;7.18;;
52866;SDS011;38739;53.324;6.862;2023-11-19T07:31:36;48.47;;;7.50;;
52866;SDS011;38739;53.324;6.862;2023-11-19T07:34:05;49.38;;;7.18;;
52866;SDS011;38739;53.324;6.862;2023-11-19T07:36:31;53.45;;;7.78;;
52866;SDS011;38739;53.324;6.862;2023-11-19T07:38:58;57.50;;;7.75;;
52866;SDS011;38739;53.324;6.862;2023-11-19T07:41:24;52.03;;;7.82;;
52866;SDS011;38739;53.324;6.862;2023-11-19T07:43:50;54.05;;;7.43;;
52866;SDS011;38739;53.324;6.862;2023-11-19T07:46:16;45.38;;;7.30;;
52866;SDS011;38739;53.324;6.862;2023-11-19T07:48:44;47.15;;;7.05;;
52866;SDS011;38739;53.324;6.862;2023-11-19T07:51:12;45.53;;;7.57;;
52866;SDS011;38739;53.324;6.862;2023-11-19T07:53:39;51.70;;;7.60;;
52866;SDS011;38739;53.324;6.862;2023-11-19T07:56:06;56.20;;;7.97;;
52866;SDS011;38739;53.324;6.862;2023-11-19T07:58:35;57.15;;;7.82;;
52866;SDS011;38739;53.324;6.862;2023-11-19T08:01:01;52.83;;;7.45;;
52866;SDS011;38739;53.324;6.862;2023-11-19T08:03:28;64.55;;;8.55;;
52866;SDS011;38739;53.324;6.862;2023-11-19T08:05:57;51.70;;;7.63;;
52866;SDS011;38739;53.324;6.862;2023-11-19T08:08:23;46.75;;;7.30;;
52866;SDS011;38739;53.324;6.862;2023-11-19T08:10:49;56.53;;;7.80;;
52866;SDS011;38739;53.324;6.862;2023-11-19T08:13:16;55.20;;;8.52;;
52866;SDS011;38739;53.324;6.862;2023-11-19T08:15:45;53.83;;;7.85;;
52866;SDS011;38739;53.324;6.862;2023-11-19T08:18:12;57.38;;;7.82;;
52866;SDS011;38739;53.324;6.862;2023-11-19T08:20:38;55.28;;;7.75;;
52866;SDS011;38739;53.324;6.862;2023-11-19T08:23:04;55.13;;;7.50;;
52866;SDS011;38739;53.324;6.862;2023-11-19T08:25:30;54.72;;;7.05;;
52866;SDS011;38739;53.324;6.862;2023-11-19T08:27:56;55.65;;;7.70;;
52866;SDS011;38739;53.324;6.862;2023-11-19T08:30:22;48.03;;;7.63;;
52866;SDS011;38739;53.324;6.862;2023-11-19T08:32:47;43.97;;;6.80;;
52866;SDS011;38739;53.324;6.862;2023-11-19T08:35:13;49.95;;;7.22;;
52866;SDS011;38739;53.324;6.862;2023-11-19T08:37:39;41.88;;;7.30;;
52866;SDS011;38739;53.324;6.862;2023-11-19T08:40:04;45.60;;;7.13;;
52866;SDS011;38739;53.324;6.862;2023-11-19T08:42:32;46.03;;;6.78;;
52866;SDS011;38739;53.324;6.862;2023-11-19T08:44:58;44.95;;;7.10;;
52866;SDS011;38739;53.324;6.862;2023-11-19T08:47:23;54.33;;;7.60;;
52866;SDS011;38739;53.324;6.862;2023-11-19T08:49:52;54.20;;;7.93;;
52866;SDS011;38739;53.324;6.862;2023-11-19T08:52:18;52.45;;;7.93;;
52866;SDS011;38739;53.324;6.862;2023-11-19T08:54:44;43.35;;;7.05;;
52866;SDS011;38739;53.324;6.862;2023-11-19T08:57:10;50.63;;;8.00;;
52866;SDS011;38739;53.324;6.862;2023-11-19T08:59:35;43.53;;;6.88;;
52866;SDS011;38739;53.324;6.862;2023-11-19T09:02:04;54.08;;;8.25;;
52866;SDS011;38739;53.324;6.862;2023-11-19T09:04:30;46.75;;;7.18;;
52866;SDS011;38739;53.324;6.862;2023-11-19T09:06:57;41.90;;;6.75;;
52866;SDS011;38739;53.324;6.862;2023-11-19T09:09:23;51.88;;;7.97;;
52866;SDS011;38739;53.324;6.862;2023-11-19T09:11:49;49.45;;;7.30;;
52866;SDS011;38739;53.324;6.862;2023-11-19T09:14:15;48.75;;;7.10;;
52866;SDS011;38739;53.324;6.862;2023-11-19T09:16:40;46.38;;;6.60;;
52866;SDS011;38739;53.324;6.862;2023-11-19T09:19:06;51.50;;;7.47;;
52866;SDS011;38739;53.324;6.862;2023-11-19T09:21:32;45.30;;;7.07;;
52866;SDS011;38739;53.324;6.862;2023-11-19T09:23:59;49.75;;;7.15;;
52866;SDS011;38739;53.324;6.862;2023-11-19T09:26:25;55.53;;;8.02;;
52866;SDS011;38739;53.324;6.862;2023-11-19T09:28:50;51.08;;;7.80;;
52866;SDS011;38739;53.324;6.862;2023-11-19T09:31:16;45.63;;;6.70;;
52866;SDS011;38739;53.324;6.862;2023-11-19T09:33:43;51.25;;;7.78;;
52866;SDS011;38739;53.324;6.862;2023-11-19T09:36:09;49.00;;;7.78;;
52866;SDS011;38739;53.324;6.862;2023-11-19T09:38:39;54.28;;;8.55;;
52866;SDS011;38739;53.324;6.862;2023-11-19T09:41:05;45.47;;;7.70;;
52866;SDS011;38739;53.324;6.862;2023-11-19T09:43:34;58.90;;;8.80;;
52866;SDS011;38739;53.324;6.862;2023-11-19T09:46:04;46.03;;;7.20;;
52866;SDS011;38739;53.324;6.862;2023-11-19T09:48:36;46.72;;;7.22;;
52866;SDS011;38739;53.324;6.862;2023-11-19T09:51:04;50.92;;;8.05;;
52866;SDS011;38739;53.324;6.862;2023-11-19T09:53:30;45.78;;;6.65;;
52866;SDS011;38739;53.324;6.862;2023-11-19T09:55:57;47.70;;;6.65;;
52866;SDS011;38739;53.324;6.862;2023-11-19T09:58:29;49.58;;;7.32;;
52866;SDS011;38739;53.324;6.862;2023-11-19T10:00:56;46.25;;;8.40;;
52866;SDS011;38739;53.324;6.862;2023-11-19T10:03:24;43.80;;;7.20;;
52866;SDS011;38739;53.324;6.862;2023-11-19T10:05:52;50.40;;;8.35;;
52866;SDS011;38739;53.324;6.862;2023-11-19T10:08:22;49.22;;;7.65;;
52866;SDS011;38739;53.324;6.862;2023-11-19T10:10:48;45.80;;;7.47;;
52866;SDS011;38739;53.324;6.862;2023-11-19T10:13:14;44.72;;;7.38;;
52866;SDS011;38739;53.324;6.862;2023-11-19T10:15:39;46.53;;;7.13;;
52866;SDS011;38739;53.324;6.862;2023-11-19T10:18:06;50.22;;;6.97;;
52866;SDS011;38739;53.324;6.862;2023-11-19T10:20:38;39.50;;;6.60;;
52866;SDS011;38739;53.324;6.862;2023-11-19T10:23:06;42.42;;;6.95;;
52866;SDS011;38739;53.324;6.862;2023-11-19T10:25:32;42.95;;;6.70;;
52866;SDS011;38739;53.324;6.862;2023-11-19T10:27:58;39.35;;;7.13;;
52866;SDS011;38739;53.324;6.862;2023-11-19T10:30:29;48.40;;;7.35;;
52866;SDS011;38739;53.324;6.862;2023-11-19T10:35:33;52.90;;;7.93;;
52866;SDS011;38739;53.324;6.862;2023-11-19T10:38:15;48.13;;;6.63;;
52866;SDS011;38739;53.324;6.862;2023-11-19T10:40:41;43.60;;;6.25;;
52866;SDS011;38739;53.324;6.862;2023-11-19T10:43:07;45.45;;;7.35;;
52866;SDS011;38739;53.324;6.862;2023-11-19T10:45:34;39.65;;;7.05;;
52866;SDS011;38739;53.324;6.862;2023-11-19T10:48:04;45.13;;;7.07;;
52866;SDS011;38739;53.324;6.862;2023-11-19T10:50:33;40.67;;;6.72;;
52866;SDS011;38739;53.324;6.862;2023-11-19T10:53:01;45.63;;;6.88;;
52866;SDS011;38739;53.324;6.862;2023-11-19T10:55:32;46.60;;;6.72;;
52866;SDS011;38739;53.324;6.862;2023-11-19T10:58:04;39.45;;;5.82;;
52866;SDS011;38739;53.324;6.862;2023-11-19T11:00:36;47.05;;;7.22;;
52866;SDS011;38739;53.324;6.862;2023-11-19T11:03:37;44.90;;;6.35;;
52866;SDS011;38739;53.324;6.862;2023-11-19T11:06:05;41.78;;;6.68;;
52866;SDS011;38739;53.324;6.862;2023-11-19T11:08:31;47.95;;;7.47;;
52866;SDS011;38739;53.324;6.862;2023-11-19T11:10:59;47.72;;;7.57;;
52866;SDS011;38739;53.324;6.862;2023-11-19T11:13:27;49.15;;;7.05;;
52866;SDS011;38739;53.324;6.862;2023-11-19T11:15:54;45.97;;;7.82;;
52866;SDS011;38739;53.324;6.862;2023-11-19T11:18:23;48.67;;;7.50;;
52866;SDS011;38739;53.324;6.862;2023-11-19T11:20:52;48.38;;;7.05;;
52866;SDS011;38739;53.324;6.862;2023-11-19T11:23:37;43.15;;;7.20;;
52866;SDS011;38739;53.324;6.862;2023-11-19T11:29:16;44.38;;;6.68;;
52866;SDS011;38739;53.324;6.862;2023-11-19T11:35:12;42.10;;;6.38;;
52866;SDS011;38739;53.324;6.862;2023-11-19T11:37:53;41.20;;;6.82;;
52866;SDS011;38739;53.324;6.862;2023-11-19T11:40:26;41.08;;;6.53;;
52866;SDS011;38739;53.324;6.862;2023-11-19T11:42:52;46.78;;;7.25;;
52866;SDS011;38739;53.324;6.862;2023-11-19T11:45:18;40.83;;;6.57;;
52866;SDS011;38739;53.324;6.862;2023-11-19T11:50:20;38.25;;;6.35;;
52866;SDS011;38739;53.324;6.862;2023-11-19T11:58:03;43.47;;;6.30;;
52866;SDS011;38739;53.324;6.862;2023-11-19T12:00:31;42.92;;;6.88;;
52866;SDS011;38739;53.324;6.862;2023-11-19T12:03:01;38.50;;;6.13;;
52866;SDS011;38739;53.324;6.862;2023-11-19T12:05:29;37.17;;;6.07;;
52866;SDS011;38739;53.324;6.862;2023-11-19T12:07:56;38.70;;;6.22;;
52866;SDS011;38739;53.324;6.862;2023-11-19T12:10:24;42.22;;;6.43;;
52866;SDS011;38739;53.324;6.862;2023-11-19T12:12:52;46.97;;;6.05;;
52866;SDS011;38739;53.324;6.862;2023-11-19T12:15:18;42.40;;;6.78;;
52866;SDS011;38739;53.324;6.862;2023-11-19T12:17:48;41.80;;;6.13;;
52866;SDS011;38739;53.324;6.862;2023-11-19T12:20:15;45.70;;;6.53;;
52866;SDS011;38739;53.324;6.862;2023-11-19T12:22:42;44.40;;;6.80;;
52866;SDS011;38739;53.324;6.862;2023-11-19T12:25:09;35.53;;;6.22;;
52866;SDS011;38739;53.324;6.862;2023-11-19T12:27:39;41.53;;;6.63;;
52866;SDS011;38739;53.324;6.862;2023-11-19T12:30:06;37.30;;;5.90;;
52866;SDS011;38739;53.324;6.862;2023-11-19T12:32:43;32.03;;;5.72;;
52866;SDS011;38739;53.324;6.862;2023-11-19T12:35:12;34.97;;;6.05;;
52866;SDS011;38739;53.324;6.862;2023-11-19T12:40:14;35.95;;;6.10;;
52866;SDS011;38739;53.324;6.862;2023-11-19T12:42:47;36.30;;;5.63;;
52866;SDS011;38739;53.324;6.862;2023-11-19T12:45:13;39.08;;;6.25;;
52866;SDS011;38739;53.324;6.862;2023-11-19T12:47:41;39.05;;;6.75;;
52866;SDS011;38739;53.324;6.862;2023-11-19T12:50:08;36.75;;;5.75;;
52866;SDS011;38739;53.324;6.862;2023-11-19T12:52:37;46.33;;;7.25;;
52866;SDS011;38739;53.324;6.862;2023-11-19T12:57:52;40.53;;;6.35;;
52866;SDS011;38739;53.324;6.862;2023-11-19T13:00:23;36.10;;;5.72;;
52866;SDS011;38739;53.324;6.862;2023-11-19T13:02:55;41.20;;;6.25;;
52866;SDS011;38739;53.324;6.862;2023-11-19T13:05:25;44.97;;;6.03;;
52866;SDS011;38739;53.324;6.862;2023-11-19T13:07:58;38.65;;;5.88;;
52866;SDS011;38739;53.324;6.862;2023-11-19T13:10:28;36.45;;;6.13;;
52866;SDS011;38739;53.324;6.862;2023-11-19T13:15:35;41.35;;;6.50;;
52866;SDS011;38739;53.324;6.862;2023-11-19T13:18:02;40.90;;;6.43;;
52866;SDS011;38739;53.324;6.862;2023-11-19T13:20:28;47.47;;;6.80;;
52866;SDS011;38739;53.324;6.862;2023-11-19T13:23:02;38.75;;;5.50;;
52866;SDS011;38739;53.324;6.862;2023-11-19T13:25:29;37.10;;;5.45;;
52866;SDS011;38739;53.324;6.862;2023-11-19T13:27:55;39.38;;;6.07;;
52866;SDS011;38739;53.324;6.862;2023-11-19T13:30:22;44.40;;;6.40;;
52866;SDS011;38739;53.324;6.862;2023-11-19T13:32:49;39.97;;;6.63;;
52866;SDS011;38739;53.324;6.862;2023-11-19T13:35:16;40.25;;;7.30;;
52866;SDS011;38739;53.324;6.862;2023-11-19T13:37:42;38.78;;;6.88;;
52866;SDS011;38739;53.324;6.862;2023-11-19T13:40:08;38.42;;;6.93;;
52866;SDS011;38739;53.324;6.862;2023-11-19T13:42:38;43.75;;;6.25;;
52866;SDS011;38739;53.324;6.862;2023-11-19T13:45:09;38.25;;;6.82;;
52866;SDS011;38739;53.324;6.862;2023-11-19T13:47:40;36.95;;;6.53;;
52866;SDS011;38739;53.324;6.862;2023-11-19T13:50:09;39.90;;;6.32;;
52866;SDS011;38739;53.324;6.862;2023-11-19T13:52:39;39.20;;;5.90;;
52866;SDS011;38739;53.324;6.862;2023-11-19T13:55:07;38.25;;;5.72;;
52866;SDS011;38739;53.324;6.862;2023-11-19T13:57:37;37.83;;;6.43;;
52866;SDS011;38739;53.324;6.862;2023-11-19T14:00:04;39.25;;;6.47;;
52866;SDS011;38739;53.324;6.862;2023-11-19T14:02:32;45.60;;;6.80;;
52866;SDS011;38739;53.324;6.862;2023-11-19T14:04:58;36.78;;;6.03;;
52866;SDS011;38739;53.324;6.862;2023-11-19T14:07:24;39.47;;;6.20;;
52866;SDS011;38739;53.324;6.862;2023-11-19T14:09:49;43.50;;;7.10;;
52866;SDS011;38739;53.324;6.862;2023-11-19T14:12:15;36.47;;;6.13;;
52866;SDS011;38739;53.324;6.862;2023-11-19T14:14:41;33.90;;;5.95;;
52866;SDS011;38739;53.324;6.862;2023-11-19T14:17:07;41.47;;;7.45;;
52866;SDS011;38739;53.324;6.862;2023-11-19T14:19:33;37.58;;;6.55;;
52866;SDS011;38739;53.324;6.862;2023-11-19T14:21:59;38.08;;;7.10;;
52866;SDS011;38739;53.324;6.862;2023-11-19T14:24:25;44.15;;;6.90;;
52866;SDS011;38739;53.324;6.862;2023-11-19T14:26:51;44.97;;;7.28;;
52866;SDS011;38739;53.324;6.862;2023-11-19T14:29:17;46.85;;;6.45;;
52866;SDS011;38739;53.324;6.862;2023-11-19T14:31:42;39.17;;;6.53;;
52866;SDS011;38739;53.324;6.862;2023-11-19T14:34:08;33.38;;;6.00;;
52866;SDS011;38739;53.324;6.862;2023-11-19T14:36:34;38.97;;;6.45;;
52866;SDS011;38739;53.324;6.862;2023-11-19T14:39:00;39.70;;;5.80;;
52866;SDS011;38739;53.324;6.862;2023-11-19T14:41:26;40.08;;;6.10;;
52866;SDS011;38739;53.324;6.862;2023-11-19T14:43:51;35.40;;;7.00;;
52866;SDS011;38739;53.324;6.862;2023-11-19T14:46:17;42.97;;;6.60;;
52866;SDS011;38739;53.324;6.862;2023-11-19T14:48:43;35.75;;;5.57;;
52866;SDS011;38739;53.324;6.862;2023-11-19T14:51:09;39.90;;;6.25;;
52866;SDS011;38739;53.324;6.862;2023-11-19T14:53:34;38.88;;;6.40;;
52866;SDS011;38739;53.324;6.862;2023-11-19T14:56:00;36.72;;;5.60;;
52866;SDS011;38739;53.324;6.862;2023-11-19T14:58:26;38.42;;;5.97;;
52866;SDS011;38739;53.324;6.862;2023-11-19T15:00:52;48.67;;;5.82;;
52866;SDS011;38739;53.324;6.862;2023-11-19T15:03:18;44.15;;;5.70;;